Terminal Aerodrome Forecast
Issued by NWS Cleveland, OH

Home | Current Version | Previous Version | Graphics & Text | Print | Product List | Glossary On
Versions: 1 2 3 4 5 6 7 8 9 10 11 12 13 14 15 16 17 18 19 20 21 22 23 24 25 26 27 28 29
124
FTUS41 KCLE 230828 AAA
TAFCLE
TAF AMD
KCLE 230828Z 2308/2412 19011KT P6SM SCT015 BKN040
      TEMPO 2309/2313 5SM BR BKN015
     FM231300 24012KT P6SM OVC025
     FM232100 32008KT P6SM VCSH OVC025
     FM240000 01006KT 5SM -RA BR OVC015
     FM240600 06006KT 2SM -RA BR OVC008=

USA.gov is the U.S. government's official web portal to all federal, state and local government web resources and services.